Fletcher, NC

9:35 AM EST on December 27, 2014 (GMT -0500)
SouthChase | Change Station
CLOSE
Current Station
Personal Weather Station
Location: Fletcher, NC
Elevation: 2126 ft
Nearby Weather Stations

Elev 2126 ft 35.43 °N, 82.50 °W | Updated 11 minutes ago

Mostly Cloudy
Mostly Cloudy
39.6 °F
Feels Like 40 °F
N
0.0
Wind Variable Wind from SW

Today
High -- | Low -- °F
--% Chance of Precip.
Yesterday
High -- | Low -- °F
Precip. -- in
7:37 AM 5:24 PM
Waxing Crescent, 37% visible
Pressure 30.32 in
Visibility 10.0 miles
Clouds Mostly Cloudy 9000 ft
Windchill 40 °F
Dew Point 37 °F
Humidity 89%
Rainfall 0.00 in
Snow Depth Not available.
UV 0 out of 12
Pollen .20 out of 12
Air Quality Not available.
Flu Activity Not available.
METAR KAVL 271354Z 00000KT 10SM BKN090 03/01 A3031 RMK AO2 SLP268 T00280006

More Conditions Fewer Conditions

Pressure 30.32 in
Visibility 10.0 miles
Clouds Mostly Cloudy 9000 ft
Windchill 40 °F
Dew Point 37 °F
Humidity 89%
Rainfall 0.00 in
Snow Depth Not available.
UV 0 out of 12
Pollen .20 out of 12
Air Quality Not available.
Flu Activity Not available.
METAR KAVL 271354Z 00000KT 10SM BKN090 03/01 A3031 RMK AO2 SLP268 T00280006

More Conditions Fewer Conditions

10-Day Weather Forecast

Almanac

Astronomy

Dec. 27, 2014 Rise Set
Actual Time
Civil Twilight
Nautical Twilight
Astronomical Twilight
Moon
Length of Visible Light
Length of Day
Tomorrow will be .
, % of the Moon is Illuminated

Today's Extremes

State Highs State Lows

Community

WunderPhotos

Upload Photos

1,780,917 photos uploaded!

WunderBlogs® & News

Nearby

Air Quality

  Air Quality AQ Index Pollutant
Not available.

Snow Depth

Station Depth Elevation

Earthquake Activity

City Distance Mag. Time & Date
Minimum magnitude displayed is 2.5.

Coastal Water Temperatures

Place Temperature

Nearby Weather Stations